Time;durP1;ratioP1;P1;durP2;ratioP2;P2;SDS_P1;SDS_P2;PMS_P1;PMS_P2;Temp;Humidity;BMP_temperature;BMP_pressure;BME280_temperature;BME280_humidity;BME280_pressure;Samples;Min_cycle;Max_cycle;Signal;HPM_P1;HPM_P2
2022/07/07 00:01:31;;;;;;;2.10;0.47;;;21.10;61.20;;;;;;5113349;28;20052;-74
2022/07/07 00:03:57;;;;;;;1.10;0.40;;;21.10;61.20;;;;;;5111944;28;20240;-73
2022/07/07 00:06:23;;;;;;;1.75;0.40;;;21.10;61.30;;;;;;5111447;28;20109;-74
2022/07/07 00:08:55;;;;;;;0.70;0.40;;;21.10;61.30;;;;;;5111982;28;20031;-73
2022/07/07 00:11:22;;;;;;;1.77;0.40;;;21.10;61.40;;;;;;5112473;28;20054;-73
2022/07/07 00:13:47;;;;;;;1.88;0.40;;;21.10;61.40;;;;;;5113490;28;20111;-73
2022/07/07 00:16:13;;;;;;;1.83;0.57;;;21.10;61.40;;;;;;5111885;28;20485;-73
2022/07/07 00:18:39;;;;;;;3.60;0.50;;;21.10;61.50;;;;;;5111862;28;20032;-73
2022/07/07 00:21:05;;;;;;;1.65;0.60;;;21.10;61.50;;;;;;5113079;28;20036;-73
2022/07/07 00:23:31;;;;;;;0.73;0.35;;;21.10;61.50;;;;;;5111905;28;20047;-72
2022/07/07 00:25:57;;;;;;;2.13;0.60;;;21.10;61.50;;;;;;5111559;28;20533;-72
2022/07/07 00:28:23;;;;;;;1.25;0.70;;;21.10;61.60;;;;;;5111859;28;20067;-72
2022/07/07 00:30:48;;;;;;;1.15;0.40;;;21.10;61.60;;;;;;5112882;28;20417;-72
2022/07/07 00:33:14;;;;;;;2.45;0.50;;;21.10;61.60;;;;;;5111383;28;20043;-72
2022/07/07 00:35:41;;;;;;;1.73;0.47;;;21.10;61.60;;;;;;5111386;28;20093;-72
2022/07/07 00:38:06;;;;;;;1.05;0.45;;;21.10;61.80;;;;;;5111467;28;20039;-72
2022/07/07 00:40:32;;;;;;;1.25;0.50;;;21.10;61.80;;;;;;5111678;28;20035;-72
2022/07/07 00:42:58;;;;;;;1.10;0.43;;;21.10;61.80;;;;;;5111601;28;20087;-72
2022/07/07 00:45:24;;;;;;;1.00;0.50;;;21.10;61.90;;;;;;5112613;28;20072;-72
2022/07/07 00:47:50;;;;;;;1.40;0.68;;;21.10;62.00;;;;;;5111242;28;20059;-72
2022/07/07 00:50:16;;;;;;;1.83;0.47;;;21.10;61.90;;;;;;5111119;28;20036;-72
2022/07/07 00:52:42;;;;;;;1.02;0.50;;;21.10;62.00;;;;;;5111228;28;20036;-71
2022/07/07 00:55:08;;;;;;;1.40;0.57;;;21.10;62.00;;;;;;5111146;28;20036;-71
2022/07/07 00:57:35;;;;;;;1.38;0.40;;;21.10;62.10;;;;;;5111176;28;20040;-72
2022/07/07 01:00:07;;;;;;;1.42;0.52;;;21.10;62.10;;;;;;5112473;28;20046;-71
2022/07/07 01:02:33;;;;;;;0.82;0.55;;;21.10;62.20;;;;;;5110982;28;20509;-72
2022/07/07 01:05:01;;;;;;;0.88;0.50;;;21.10;62.20;;;;;;5112201;28;20204;-71
2022/07/07 01:07:27;;;;;;;0.77;0.50;;;21.10;62.20;;;;;;5110798;28;20495;-71
2022/07/07 01:09:55;;;;;;;1.00;0.60;;;21.00;62.90;;;;;;5112183;28;20472;-72
2022/07/07 01:12:21;;;;;;;1.30;0.40;;;21.10;62.20;;;;;;5111033;28;20039;-71
2022/07/07 01:14:47;;;;;;;1.83;0.55;;;21.00;62.20;;;;;;5110902;28;20043;-71
2022/07/07 01:17:12;;;;;;;1.55;0.45;;;21.00;62.20;;;;;;5112211;28;20127;-72
2022/07/07 01:19:38;;;;;;;1.92;0.57;;;21.10;62.40;;;;;;5111130;28;20045;-72
2022/07/07 01:22:10;;;;;;;0.75;0.45;;;21.10;62.40;;;;;;5110907;28;20126;-71
2022/07/07 01:24:36;;;;;;;1.95;0.60;;;21.00;62.40;;;;;;5111207;28;20096;-72
2022/07/07 01:27:19;;;;;;;1.10;0.60;;;21.00;62.40;;;;;;5110927;28;20039;-71
2022/07/07 01:29:48;;;;;;;0.63;0.40;;;21.00;62.80;;;;;;5110905;28;20035;-71
2022/07/07 01:32:14;;;;;;;1.30;0.60;;;21.00;62.50;;;;;;5110915;28;20051;-72
2022/07/07 01:34:42;;;;;;;1.65;0.55;;;21.00;62.50;;;;;;5110761;28;20443;-72
2022/07/07 01:37:08;;;;;;;0.90;0.38;;;21.00;62.60;;;;;;5110760;28;20119;-72
2022/07/07 01:39:36;;;;;;;1.48;0.40;;;21.00;62.50;;;;;;5111029;28;20126;-71
2022/07/07 01:42:02;;;;;;;1.02;0.63;;;21.00;62.60;;;;;;5110978;28;20438;-71
2022/07/07 01:44:31;;;;;;;1.67;0.65;;;21.00;62.60;;;;;;5112013;28;20039;-72
2022/07/07 01:46:57;;;;;;;2.03;0.50;;;21.00;62.80;;;;;;5110465;28;20051;-72
2022/07/07 01:49:23;;;;;;;1.85;0.65;;;21.00;62.70;;;;;;5110683;28;20039;-72
2022/07/07 01:51:48;;;;;;;1.10;0.40;;;21.00;62.70;;;;;;5110556;28;20047;-72
2022/07/07 01:54:14;;;;;;;2.60;0.50;;;21.00;62.80;;;;;;5110645;28;20032;-72
2022/07/07 01:56:39;;;;;;;1.40;0.40;;;21.00;62.80;;;;;;5110518;28;20036;-71
2022/07/07 01:59:05;;;;;;;1.42;0.30;;;21.00;62.70;;;;;;5110585;28;20039;-72
2022/07/07 02:04:15;;;;;;;0.52;0.22;;;21.00;62.90;;;;;;5111812;28;20096;-71
2022/07/07 02:06:40;;;;;;;1.90;0.38;;;21.00;62.70;;;;;;5111641;28;20482;-70
2022/07/07 02:09:07;;;;;;;1.55;0.50;;;21.00;62.80;;;;;;5110508;28;20071;-71
2022/07/07 02:11:34;;;;;;;1.02;0.50;;;21.00;62.80;;;;;;5111743;28;20071;-71
2022/07/07 02:14:01;;;;;;;0.57;0.25;;;21.00;62.80;;;;;;5113082;28;20364;-71
2022/07/07 02:16:27;;;;;;;0.65;0.25;;;21.00;62.70;;;;;;5114165;28;20047;-72
2022/07/07 02:18:55;;;;;;;1.10;0.40;;;21.00;62.80;;;;;;5114338;28;20079;-72
2022/07/07 02:21:22;;;;;;;2.05;0.40;;;21.00;62.80;;;;;;5114144;28;20039;-72
2022/07/07 02:23:49;;;;;;;1.83;0.50;;;21.00;62.80;;;;;;5114266;28;20043;-72
2022/07/07 02:26:15;;;;;;;0.93;0.30;;;21.00;62.80;;;;;;5115283;28;20047;-71
2022/07/07 02:28:41;;;;;;;0.90;0.30;;;20.90;62.70;;;;;;5114150;28;20178;-72
2022/07/07 02:31:11;;;;;;;1.55;0.30;;;21.00;62.80;;;;;;5114071;28;20506;-72
2022/07/07 02:33:37;;;;;;;0.67;0.30;;;21.00;62.80;;;;;;5115100;28;20428;-72
2022/07/07 02:36:04;;;;;;;0.70;0.20;;;20.90;62.80;;;;;;5114088;28;20031;-74
2022/07/07 02:38:31;;;;;;;0.73;0.30;;;20.90;62.70;;;;;;5113655;28;20043;-71
2022/07/07 02:40:57;;;;;;;1.02;0.30;;;20.90;62.70;;;;;;5113980;28;20039;-72
2022/07/07 02:43:23;;;;;;;1.10;0.30;;;20.90;62.70;;;;;;5113654;28;20395;-72
2022/07/07 02:45:50;;;;;;;1.10;0.40;;;20.90;62.70;;;;;;5114718;28;20032;-71
2022/07/07 02:48:22;;;;;;;0.68;0.30;;;20.90;62.80;;;;;;5113793;28;20047;-72
2022/07/07 02:50:48;;;;;;;1.42;0.20;;;20.90;62.70;;;;;;5113797;28;20114;-72
2022/07/07 02:53:15;;;;;;;0.60;0.30;;;20.90;62.80;;;;;;5114803;28;20035;-75
2022/07/07 02:55:41;;;;;;;0.93;0.28;;;20.90;62.80;;;;;;5113432;28;20035;-72
2022/07/07 02:58:08;;;;;;;0.50;0.20;;;20.90;62.70;;;;;;5114567;28;20036;-72
2022/07/07 03:00:35;;;;;;;0.93;0.20;;;20.90;62.80;;;;;;5113255;28;20088;-71
2022/07/07 03:03:02;;;;;;;0.98;0.28;;;20.90;62.90;;;;;;5113144;28;20391;-72
2022/07/07 03:05:28;;;;;;;0.93;0.50;;;20.90;62.80;;;;;;5112996;28;20055;-71
2022/07/07 03:07:53;;;;;;;0.40;0.13;;;20.90;63.00;;;;;;5113143;28;20048;-71
2022/07/07 03:10:19;;;;;;;0.50;0.20;;;20.90;63.00;;;;;;5113329;28;20122;-72
2022/07/07 03:12:48;;;;;;;0.95;0.20;;;20.90;63.00;;;;;;5113078;28;20386;-71
2022/07/07 03:15:13;;;;;;;0.80;0.30;;;20.90;63.10;;;;;;5113371;28;20126;-72
2022/07/07 03:17:42;;;;;;;0.63;0.30;;;20.90;63.10;;;;;;5112988;28;20126;-71
2022/07/07 03:20:09;;;;;;;0.50;0.15;;;20.90;63.20;;;;;;5112926;28;20044;-71
2022/07/07 03:22:34;;;;;;;0.93;0.20;;;20.90;63.20;;;;;;5112871;28;20044;-72
2022/07/07 03:25:00;;;;;;;1.38;0.20;;;20.90;63.10;;;;;;5114148;28;20042;-72
2022/07/07 03:27:25;;;;;;;0.85;0.30;;;20.90;63.20;;;;;;5112670;28;20387;-72
2022/07/07 03:29:51;;;;;;;1.20;0.30;;;20.90;63.20;;;;;;5112621;28;20070;-72
2022/07/07 03:32:17;;;;;;;1.20;0.30;;;20.90;63.20;;;;;;5113859;28;20039;-71
2022/07/07 03:34:43;;;;;;;1.70;0.20;;;20.90;63.20;;;;;;5112834;28;20035;-72
2022/07/07 03:37:09;;;;;;;0.98;0.20;;;20.90;63.20;;;;;;5114048;27;20042;-71
2022/07/07 03:39:35;;;;;;;2.53;0.30;;;20.90;63.20;;;;;;5112755;28;20483;-71
2022/07/07 03:42:00;;;;;;;1.58;0.20;;;20.90;63.20;;;;;;5113869;28;20383;-71
2022/07/07 03:44:27;;;;;;;0.63;0.20;;;20.80;63.10;;;;;;5112350;28;20043;-72
2022/07/07 03:46:52;;;;;;;1.40;0.22;;;20.90;63.20;;;;;;5112442;28;20043;-72
2022/07/07 03:49:18;;;;;;;1.02;0.32;;;20.90;63.10;;;;;;5113622;28;20053;-72
2022/07/07 03:51:44;;;;;;;0.95;0.20;;;20.90;63.20;;;;;;5113504;28;20120;-73
2022/07/07 03:54:09;;;;;;;1.05;0.20;;;20.90;63.10;;;;;;5112347;28;20035;-72
2022/07/07 03:56:35;;;;;;;0.73;0.20;;;20.90;63.10;;;;;;5113466;28;20039;-72
2022/07/07 03:59:02;;;;;;;0.82;0.30;;;20.80;63.10;;;;;;5112198;28;20402;-72
2022/07/07 04:01:28;;;;;;;0.70;0.35;;;20.90;63.10;;;;;;5111987;28;20097;-72
2022/07/07 04:03:53;;;;;;;0.73;0.50;;;20.90;63.10;;;;;;5112105;28;20036;-73
2022/07/07 04:06:19;;;;;;;0.98;0.25;;;20.80;63.00;;;;;;5111679;28;20062;-72
2022/07/07 04:08:45;;;;;;;0.70;0.20;;;20.80;63.00;;;;;;5113480;28;20123;-72
2022/07/07 04:11:10;;;;;;;1.20;0.20;;;20.80;63.00;;;;;;5112073;28;20049;-72
2022/07/07 04:13:36;;;;;;;1.42;0.20;;;20.80;63.00;;;;;;5111952;28;20032;-72
2022/07/07 04:16:02;;;;;;;0.50;0.30;;;20.80;63.00;;;;;;5111674;28;20044;-72
2022/07/07 04:18:27;;;;;;;1.08;0.20;;;20.80;62.90;;;;;;5113262;28;20036;-71
2022/07/07 04:20:56;;;;;;;0.40;0.10;;;20.80;62.90;;;;;;5111712;28;20043;-71
2022/07/07 04:23:21;;;;;;;0.57;0.20;;;20.80;62.90;;;;;;5111806;28;20326;-72
2022/07/07 04:25:47;;;;;;;0.88;0.10;;;20.80;63.60;;;;;;5113030;28;20114;-70
2022/07/07 04:28:15;;;;;;;0.35;0.10;;;20.80;62.90;;;;;;5111562;28;20039;-71
2022/07/07 04:30:41;;;;;;;0.77;0.20;;;20.80;62.90;;;;;;5111566;28;20050;-72
2022/07/07 04:33:07;;;;;;;1.00;0.20;;;20.80;62.90;;;;;;5111381;28;20043;-72
2022/07/07 04:35:35;;;;;;;1.40;0.22;;;20.80;62.90;;;;;;5111529;28;20039;-71
2022/07/07 04:38:01;;;;;;;1.25;0.20;;;20.80;62.80;;;;;;5112402;28;20039;-71
2022/07/07 04:40:26;;;;;;;1.17;0.17;;;20.80;62.90;;;;;;5112728;28;20037;-72
2022/07/07 04:42:52;;;;;;;1.30;0.20;;;20.80;62.90;;;;;;5111309;28;20058;-72
2022/07/07 04:45:18;;;;;;;1.35;0.20;;;20.80;62.90;;;;;;5111562;28;20043;-72
2022/07/07 04:47:44;;;;;;;0.75;0.20;;;20.80;63.00;;;;;;5111135;28;20048;-71
2022/07/07 04:50:11;;;;;;;1.45;0.15;;;20.80;62.90;;;;;;5111544;28;20039;-72
2022/07/07 04:52:37;;;;;;;1.33;0.28;;;20.70;62.90;;;;;;5112501;28;20135;-71
2022/07/07 04:55:03;;;;;;;1.27;0.17;;;20.80;62.90;;;;;;5112565;28;20039;-72
2022/07/07 04:57:29;;;;;;;0.68;0.30;;;20.80;62.90;;;;;;5111105;28;20122;-72
2022/07/07 04:59:55;;;;;;;0.80;0.20;;;20.80;63.00;;;;;;5112575;28;20119;-71
2022/07/07 05:02:20;;;;;;;2.00;0.30;;;20.80;62.90;;;;;;5111024;28;20039;-72
2022/07/07 05:04:46;;;;;;;1.55;0.20;;;20.80;62.90;;;;;;5111138;28;20122;-72
2022/07/07 05:07:15;;;;;;;2.05;0.20;;;20.70;62.90;;;;;;5110771;28;20047;-71
2022/07/07 05:09:40;;;;;;;1.38;0.20;;;20.70;62.80;;;;;;5111287;28;20387;-72
2022/07/07 05:12:15;;;;;;;1.58;0.20;;;20.70;62.90;;;;;;5111095;28;20043;-72
2022/07/07 05:14:43;;;;;;;1.00;0.40;;;20.70;62.90;;;;;;5111477;28;20390;-72
2022/07/07 05:17:08;;;;;;;0.90;0.10;;;20.70;62.90;;;;;;5111195;28;20058;-73
2022/07/07 05:19:34;;;;;;;1.48;0.20;;;20.70;62.90;;;;;;5112223;28;20118;-71
2022/07/07 05:22:00;;;;;;;1.67;0.20;;;20.70;62.90;;;;;;5112362;28;20024;-72
2022/07/07 05:24:26;;;;;;;1.52;0.30;;;20.70;62.90;;;;;;5111167;28;20510;-71
2022/07/07 05:26:51;;;;;;;1.52;0.20;;;20.70;62.90;;;;;;5110832;28;20506;-72
2022/07/07 05:29:20;;;;;;;0.90;0.15;;;20.70;62.90;;;;;;5110867;28;20043;-72
2022/07/07 05:31:46;;;;;;;2.63;0.30;;;20.70;62.90;;;;;;5110761;28;20047;-72
2022/07/07 05:34:11;;;;;;;1.70;0.20;;;20.70;62.80;;;;;;5112262;28;20038;-72
2022/07/07 05:36:37;;;;;;;1.17;0.17;;;20.70;62.80;;;;;;5111187;28;20035;-69
2022/07/07 05:39:03;;;;;;;0.50;0.20;;;20.70;62.80;;;;;;5109247;28;20391;-71
2022/07/07 05:41:28;;;;;;;1.58;0.05;;;20.70;63.00;;;;;;5108569;28;20165;-71
2022/07/07 05:43:54;;;;;;;0.55;0.08;;;20.70;63.30;;;;;;5110121;28;20035;-71
2022/07/07 05:46:20;;;;;;;1.50;0.10;;;20.80;63.40;;;;;;5107902;28;20047;-72
2022/07/07 05:48:52;;;;;;;0.40;0.10;;;20.80;63.60;;;;;;5111915;28;20046;-71
2022/07/07 05:51:17;;;;;;;0.88;0.10;;;20.80;63.40;;;;;;5113880;28;20269;-71
2022/07/07 05:53:43;;;;;;;0.88;0.20;;;20.80;63.40;;;;;;5113535;28;20040;-71
2022/07/07 05:56:08;;;;;;;0.95;0.10;;;20.80;63.30;;;;;;5113454;28;20032;-71
2022/07/07 05:58:34;;;;;;;1.15;0.10;;;20.80;63.30;;;;;;5111952;27;20110;-71
2022/07/07 06:01:00;;;;;;;3.50;0.20;;;20.80;63.30;;;;;;5110937;28;20062;-71
2022/07/07 06:03:25;;;;;;;0.57;0.10;;;20.90;63.20;;;;;;5111906;28;20127;-70
2022/07/07 06:05:51;;;;;;;0.88;0.30;;;20.90;63.10;;;;;;5107744;27;20556;-73
2022/07/07 06:08:18;;;;;;;2.33;0.10;;;20.90;64.00;;;;;;5109028;28;20040;-72
2022/07/07 06:10:44;;;;;;;1.30;0.10;;;20.90;63.30;;;;;;5107106;28;20044;-71
2022/07/07 06:13:09;;;;;;;2.13;0.10;;;20.90;63.30;;;;;;5105837;28;20123;-76
2022/07/07 06:15:35;;;;;;;1.85;0.20;;;20.90;63.50;;;;;;5083316;28;20063;-71
2022/07/07 06:18:03;;;;;;;4.60;0.32;;;20.90;63.70;;;;;;5105598;28;20039;-72
2022/07/07 06:20:29;;;;;;;2.05;0.38;;;20.90;63.70;;;;;;5103076;28;20114;-73
2022/07/07 06:22:58;;;;;;;2.50;0.20;;;20.90;63.60;;;;;;5097501;28;20418;-73
2022/07/07 06:25:26;;;;;;;4.38;0.30;;;20.90;63.50;;;;;;5096809;28;20051;-70
2022/07/07 06:27:52;;;;;;;1.15;0.20;;;21.00;63.50;;;;;;5098150;28;20114;-71
2022/07/07 06:30:18;;;;;;;2.38;0.30;;;20.90;63.40;;;;;;5096381;28;20050;-71
2022/07/07 06:32:44;;;;;;;4.07;1.38;;;21.00;63.50;;;;;;5088320;28;20036;-72
2022/07/07 06:35:10;;;;;;;4.22;0.20;;;21.00;63.50;;;;;;5090860;27;20040;-71
2022/07/07 06:37:36;;;;;;;1.40;0.20;;;21.00;63.50;;;;;;5093562;28;20050;-71
2022/07/07 06:40:01;;;;;;;3.58;0.20;;;21.00;63.40;;;;;;5098036;28;20518;-72
2022/07/07 06:42:27;;;;;;;2.80;0.22;;;21.00;63.30;;;;;;5091066;28;20047;-72
2022/07/07 06:44:53;;;;;;;1.75;0.38;;;21.10;63.20;;;;;;5095669;28;20063;-73
2022/07/07 06:47:18;;;;;;;2.40;0.60;;;21.10;62.90;;;;;;5110157;27;20048;-74
2022/07/07 06:49:44;;;;;;;3.72;0.30;;;21.10;62.90;;;;;;5098762;28;20076;-73
2022/07/07 06:52:16;;;;;;;5.15;0.40;;;21.10;62.90;;;;;;5096323;28;20043;-74
2022/07/07 06:54:45;;;;;;;2.35;0.25;;;21.10;62.80;;;;;;5094863;28;20111;-75
2022/07/07 06:57:15;;;;;;;2.15;0.50;;;21.10;62.90;;;;;;5092167;27;20043;-74
2022/07/07 06:59:40;;;;;;;4.82;1.17;;;21.10;62.90;;;;;;5093177;27;20038;-79
2022/07/07 07:02:06;;;;;;;4.10;0.35;;;21.10;62.80;;;;;;5089041;28;20043;-79
2022/07/07 07:04:32;;;;;;;4.25;0.50;;;21.10;62.90;;;;;;5094073;28;20044;-78
2022/07/07 07:06:58;;;;;;;2.65;0.30;;;21.10;62.90;;;;;;5092368;27;20400;-75
2022/07/07 07:09:24;;;;;;;3.47;0.68;;;21.10;62.70;;;;;;5099409;27;20061;-75
2022/07/07 07:11:49;;;;;;;1.65;0.22;;;21.10;62.50;;;;;;5090355;28;20119;-77
2022/07/07 07:14:15;;;;;;;4.47;0.20;;;21.20;62.40;;;;;;5093446;28;20411;-74
2022/07/07 07:16:41;;;;;;;2.15;0.20;;;21.10;62.20;;;;;;5092369;27;20046;-79
2022/07/07 07:19:07;;;;;;;2.15;0.20;;;21.20;62.20;;;;;;5093303;28;20032;-75
2022/07/07 07:21:32;;;;;;;1.48;0.20;;;21.20;62.00;;;;;;5093826;28;20135;-74
2022/07/07 07:23:58;;;;;;;1.13;0.10;;;21.20;62.00;;;;;;5090351;27;20032;-74
2022/07/07 07:26:24;;;;;;;3.28;0.20;;;21.10;62.20;;;;;;5090974;28;20043;-74
2022/07/07 07:28:50;;;;;;;3.35;0.28;;;21.20;62.30;;;;;;5087663;28;20039;-74
2022/07/07 07:31:16;;;;;;;2.00;0.20;;;21.20;62.40;;;;;;5089147;28;20031;-76
2022/07/07 07:33:42;;;;;;;4.90;0.20;;;21.20;62.50;;;;;;5088300;27;20040;-75
2022/07/07 07:36:11;;;;;;;4.85;0.30;;;21.30;62.40;;;;;;5094150;27;20474;-76
2022/07/07 07:38:39;;;;;;;4.55;0.30;;;21.30;62.20;;;;;;5093033;28;20043;-77
2022/07/07 07:41:06;;;;;;;3.90;0.30;;;21.30;62.20;;;;;;5092691;28;20596;-76
2022/07/07 07:43:35;;;;;;;5.05;0.43;;;21.30;62.20;;;;;;5094980;27;20047;-78
2022/07/07 07:46:01;;;;;;;0.70;0.10;;;21.30;62.10;;;;;;5093234;27;20035;-78
2022/07/07 07:48:27;;;;;;;1.85;0.52;;;21.30;62.00;;;;;;5107334;27;20039;-77
2022/07/07 07:50:53;;;;;;;3.03;0.25;;;21.30;61.90;;;;;;5086761;27;20243;-77
2022/07/07 07:53:19;;;;;;;2.55;0.20;;;21.30;61.70;;;;;;5089070;28;20471;-78
2022/07/07 07:55:44;;;;;;;3.03;0.10;;;21.30;61.80;;;;;;5091232;28;20092;-76
2022/07/07 07:58:10;;;;;;;1.65;0.10;;;21.30;61.70;;;;;;5108374;27;20074;-76
2022/07/07 08:00:36;;;;;;;2.90;0.65;;;21.30;61.70;;;;;;5093348;28;20053;-76
2022/07/07 08:03:02;;;;;;;1.65;0.13;;;21.30;61.50;;;;;;5094003;28;20047;-76
2022/07/07 08:05:31;;;;;;;1.27;0.10;;;21.40;61.50;;;;;;5087195;27;21336;-76
2022/07/07 08:07:57;;;;;;;1.45;0.10;;;21.40;61.40;;;;;;5091091;28;20146;-76
2022/07/07 08:10:23;;;;;;;1.05;0.10;;;21.40;61.30;;;;;;5105288;27;20904;-77
2022/07/07 08:12:49;;;;;;;1.30;0.55;;;21.50;61.30;;;;;;5088794;28;20126;-76
2022/07/07 08:15:15;;;;;;;0.88;0.00;;;21.50;61.30;;;;;;5095016;28;20036;-77
2022/07/07 08:17:42;;;;;;;1.05;0.10;;;21.50;61.10;;;;;;5088025;27;20533;-77
2022/07/07 08:20:08;;;;;;;1.35;0.05;;;21.50;61.20;;;;;;5098788;28;20616;-77
2022/07/07 08:22:35;;;;;;;1.13;0.10;;;21.50;61.20;;;;;;5090484;28;20119;-77
2022/07/07 08:25:00;;;;;;;0.55;0.28;;;21.50;61.20;;;;;;5093515;28;20044;-74
2022/07/07 08:27:29;;;;;;;2.45;0.10;;;21.50;61.10;;;;;;5094880;28;20126;-75
2022/07/07 08:30:00;;;;;;;1.58;0.30;;;21.60;61.10;;;;;;5106703;27;20115;-74
2022/07/07 08:32:25;;;;;;;;;;;21.60;61.20;;;;;;5088977;28;20511;-78
2022/07/07 08:34:51;;;;;;;2.42;0.10;;;21.60;60.90;;;;;;5085947;28;20014;-77
2022/07/07 08:37:17;;;;;;;3.83;0.10;;;21.70;60.90;;;;;;5092989;28;20058;-77
2022/07/07 08:39:43;;;;;;;2.20;0.10;;;21.70;60.80;;;;;;5093890;28;20044;-78
2022/07/07 08:42:09;;;;;;;2.08;0.15;;;21.70;60.70;;;;;;5092351;28;20039;-77
2022/07/07 08:44:34;;;;;;;2.90;0.17;;;21.80;60.70;;;;;;5091589;28;20506;-77
2022/07/07 08:47:00;;;;;;;1.85;0.10;;;21.80;60.70;;;;;;5105932;27;20142;-77
2022/07/07 08:49:27;;;;;;;2.35;0.30;;;21.80;60.60;;;;;;5089075;28;20105;-77
2022/07/07 08:51:55;;;;;;;3.50;0.10;;;21.80;60.70;;;;;;5089098;28;20051;-77
2022/07/07 08:54:22;;;;;;;3.05;0.20;;;21.90;60.70;;;;;;5106449;27;20043;-77
2022/07/07 08:56:48;;;;;;;2.65;0.10;;;21.90;60.60;;;;;;5091733;28;20043;-77
2022/07/07 08:59:14;;;;;;;2.90;0.35;;;21.90;60.50;;;;;;5092282;28;20054;-77
2022/07/07 09:01:41;;;;;;;2.03;0.20;;;21.90;60.60;;;;;;5105875;27;20040;-78
2022/07/07 09:04:06;;;;;;;1.52;0.30;;;21.80;60.70;;;;;;5090027;28;20277;-79
2022/07/07 09:06:33;;;;;;;2.22;0.10;;;21.80;60.70;;;;;;5089898;28;20079;-77
2022/07/07 09:09:01;;;;;;;2.58;0.20;;;21.80;60.50;;;;;;5095738;28;20075;-76
2022/07/07 09:11:30;;;;;;;1.27;0.20;;;21.80;60.50;;;;;;5094892;28;20541;-75
2022/07/07 09:14:08;;;;;;;3.00;0.20;;;21.80;60.60;;;;;;5085998;28;20039;-72
2022/07/07 09:16:36;;;;;;;0.70;0.10;;;21.90;60.80;;;;;;5090578;28;20123;-76
2022/07/07 09:19:03;;;;;;;2.00;0.10;;;21.90;61.10;;;;;;5090604;28;20035;-73
2022/07/07 09:21:34;;;;;;;2.30;0.15;;;22.10;61.00;;;;;;5088825;28;20124;-72
2022/07/07 09:24:02;;;;;;;5.70;0.77;;;22.10;60.80;;;;;;5094695;28;20139;-76
2022/07/07 09:26:45;;;;;;;2.55;0.10;;;22.20;60.70;;;;;;5091672;27;20181;-76
2022/07/07 09:29:18;;;;;;;2.22;0.13;;;22.20;60.70;;;;;;5078246;28;20040;-76
2022/07/07 09:32:04;;;;;;;;;;;22.30;60.60;;;;;;5097186;28;20097;-78
2022/07/07 09:34:33;;;;;;;1.35;0.17;;;22.30;61.00;;;;;;5094960;28;20294;-78
2022/07/07 09:39:48;;;;;;;2.30;0.15;;;22.20;60.70;;;;;;5095428;28;20530;-82
2022/07/07 09:47:34;;;;;;;0.60;0.10;;;22.10;60.60;;;;;;5101039;27;20455;-76
2022/07/07 09:52:40;;;;;;;0.52;0.10;;;22.10;60.80;;;;;;5116840;27;1180731;-76
2022/07/07 09:55:09;;;;;;;0.60;0.10;;;22.10;60.90;;;;;;5120416;27;20575;-77
2022/07/07 09:57:35;;;;;;;1.73;0.17;;;22.10;60.80;;;;;;5116243;27;20043;-75
2022/07/07 10:00:01;;;;;;;1.95;0.10;;;22.30;61.00;;;;;;5118402;27;20117;-74
2022/07/07 10:02:29;;;;;;;3.33;0.10;;;22.30;61.00;;;;;;5116363;27;20223;-73
2022/07/07 10:04:58;;;;;;;2.90;0.13;;;22.40;61.10;;;;;;5116470;27;20074;-74
2022/07/07 10:07:25;;;;;;;3.58;0.15;;;22.40;61.20;;;;;;5125665;27;20064;-75
2022/07/07 10:09:54;;;;;;;1.23;0.20;;;22.40;61.20;;;;;;5136009;27;20395;-75
2022/07/07 10:12:21;;;;;;;2.20;0.17;;;22.40;61.20;;;;;;5120433;27;20045;-76
2022/07/07 10:14:49;;;;;;;2.47;0.20;;;22.40;61.10;;;;;;5138838;27;20043;-76
2022/07/07 10:17:16;;;;;;;1.15;0.20;;;22.40;61.00;;;;;;5114492;27;20752;-76
2022/07/07 10:19:43;;;;;;;5.57;0.32;;;22.40;61.00;;;;;;5135493;27;20045;-74
2022/07/07 10:22:12;;;;;;;0.95;0.10;;;22.40;61.00;;;;;;5138820;27;20389;-76
2022/07/07 10:24:40;;;;;;;0.68;0.10;;;22.30;60.90;;;;;;5119462;27;20688;-74
2022/07/07 10:27:07;;;;;;;3.85;0.20;;;22.30;60.90;;;;;;5139572;27;20065;-74
2022/07/07 10:35:15;;;;;;;3.33;0.20;;;22.30;61.30;;;;;;5077884;27;20368;-74
2022/07/07 10:37:43;;;;;;;5.80;0.35;;;22.30;62.10;;;;;;5076616;28;20044;-75
2022/07/07 10:40:13;;;;;;;5.20;0.40;;;22.30;62.30;;;;;;5066979;28;20041;-74
2022/07/07 10:45:19;;;;;;;5.38;0.57;;;22.30;62.50;;;;;;5087657;27;20475;-79
2022/07/07 10:47:45;;;;;;;2.53;0.32;;;22.40;62.30;;;;;;5087800;28;20119;-78
2022/07/07 10:50:24;;;;;;;4.43;0.20;;;22.40;62.50;;;;;;5120518;27;20058;-73
2022/07/07 10:52:50;;;;;;;5.45;0.20;;;22.40;63.40;;;;;;5092055;28;20047;-76
2022/07/07 10:55:15;;;;;;;1.23;0.10;;;22.40;63.00;;;;;;5120548;27;20039;-79
2022/07/07 10:57:44;;;;;;;2.60;0.30;;;22.40;63.10;;;;;;5086030;28;20044;-76
2022/07/07 11:00:16;;;;;;;4.50;0.17;;;22.40;63.30;;;;;;5088649;28;20096;-77
2022/07/07 11:02:47;;;;;;;2.50;0.30;;;22.40;63.60;;;;;;5089246;28;20119;-74
2022/07/07 11:13:31;;;;;;;2.88;0.30;;;22.40;63.40;;;;;;5078407;27;20463;-72
2022/07/07 11:16:21;;;;;;;3.38;0.20;;;22.40;63.40;;;;;;5114819;27;20055;-72
2022/07/07 11:18:56;;;;;;;2.00;0.30;;;22.40;63.70;;;;;;5091434;28;20427;-73
2022/07/07 11:21:42;;;;;;;3.25;0.30;;;22.30;63.30;;;;;;5091484;28;20051;-73
2022/07/07 11:24:23;;;;;;;2.83;0.20;;;22.30;63.10;;;;;;5119921;27;20055;-73
2022/07/07 11:26:59;;;;;;;0.45;0.10;;;22.30;63.20;;;;;;5086825;28;20590;-73
2022/07/07 11:29:24;;;;;;;1.45;0.20;;;22.30;62.80;;;;;;5103723;28;20136;-72
2022/07/07 11:32:03;;;;;;;3.17;0.38;;;22.30;62.80;;;;;;5095647;28;20376;-72
2022/07/07 11:34:40;;;;;;;2.70;0.45;;;22.30;62.50;;;;;;5123728;27;20089;-73
2022/07/07 11:37:27;;;;;;;2.72;0.20;;;22.30;62.40;;;;;;5123846;27;20040;-72
2022/07/07 11:39:55;;;;;;;0.95;0.10;;;22.30;62.20;;;;;;5092510;28;20098;-72
2022/07/07 11:42:21;;;;;;;2.90;0.10;;;22.30;62.10;;;;;;5121132;27;20572;-75
2022/07/07 11:44:47;;;;;;;3.65;0.20;;;22.30;61.90;;;;;;5089445;28;20032;-76
2022/07/07 11:47:13;;;;;;;3.88;0.40;;;22.30;61.90;;;;;;5090600;28;20032;-77
2022/07/07 11:49:39;;;;;;;0.77;0.10;;;22.30;61.90;;;;;;5090732;28;20118;-77
2022/07/07 11:52:05;;;;;;;3.13;0.20;;;22.30;61.70;;;;;;5086832;28;20518;-77
2022/07/07 11:54:31;;;;;;;3.40;0.20;;;22.30;61.40;;;;;;5119487;27;20036;-77
2022/07/07 11:57:00;;;;;;;3.10;0.20;;;22.30;61.30;;;;;;5086911;28;20550;-75
2022/07/07 11:59:25;;;;;;;4.40;0.40;;;22.30;61.10;;;;;;5084615;28;20505;-76
2022/07/07 12:01:53;;;;;;;1.92;0.15;;;22.30;61.20;;;;;;5088182;28;20039;-80
2022/07/07 12:04:21;;;;;;;4.90;0.40;;;22.30;61.10;;;;;;5085311;28;20048;-80
2022/07/07 12:06:47;;;;;;;3.60;0.47;;;22.30;61.00;;;;;;5087127;28;20118;-75
2022/07/07 12:09:13;;;;;;;3.47;0.73;;;22.30;60.90;;;;;;5089847;28;20229;-77
2022/07/07 12:11:40;;;;;;;4.47;0.25;;;22.30;61.00;;;;;;5090293;28;20056;-79
2022/07/07 12:14:07;;;;;;;6.93;0.68;;;22.30;61.80;;;;;;5089417;28;20047;-74
2022/07/07 12:16:41;;;;;;;8.00;0.50;;;22.30;61.00;;;;;;5124017;27;20616;-74
2022/07/07 12:19:07;;;;;;;8.43;0.63;;;22.30;61.10;;;;;;5089403;28;20067;-75
2022/07/07 12:21:45;;;;;;;9.25;0.77;;;22.30;61.20;;;;;;5081947;28;20513;-74
2022/07/07 12:24:14;;;;;;;6.00;0.40;;;22.30;61.20;;;;;;5096350;27;20484;-75
2022/07/07 12:26:50;;;;;;;4.85;0.43;;;22.30;61.20;;;;;;5104671;27;20136;-74
2022/07/07 12:29:18;;;;;;;8.60;0.93;;;22.30;60.90;;;;;;5069317;28;20036;-75
2022/07/07 12:31:48;;;;;;;3.55;0.88;;;22.30;60.90;;;;;;5074060;28;20047;-75
2022/07/07 12:34:17;;;;;;;5.13;0.60;;;22.30;60.70;;;;;;5086163;27;20052;-75
2022/07/07 12:36:44;;;;;;;3.85;0.63;;;22.30;60.40;;;;;;5069210;28;20086;-76
2022/07/07 12:39:10;;;;;;;6.10;0.65;;;22.30;60.40;;;;;;5071128;28;20119;-78
2022/07/07 12:41:38;;;;;;;7.15;0.52;;;22.30;60.20;;;;;;5108072;27;20074;-74
2022/07/07 12:46:49;;;;;;;6.60;0.47;;;22.30;59.90;;;;;;5105629;27;20999;-77
2022/07/07 12:49:16;;;;;;;6.63;0.70;;;22.30;59.80;;;;;;5087163;28;20070;-78
2022/07/07 12:51:45;;;;;;;5.57;1.00;;;22.40;59.80;;;;;;5111441;27;20055;-77
2022/07/07 12:54:29;;;;;;;6.70;0.38;;;22.40;59.80;;;;;;5085479;28;20665;-79
2022/07/07 12:57:10;;;;;;;4.00;0.60;;;22.40;59.10;;;;;;5084076;28;20046;-74
2022/07/07 12:59:44;;;;;;;10.73;1.00;;;22.40;59.50;;;;;;5127884;27;20040;-73
2022/07/07 13:02:14;;;;;;;6.13;1.17;;;22.40;58.70;;;;;;5129206;27;20047;-75
2022/07/07 13:04:42;;;;;;;8.23;1.23;;;22.40;58.90;;;;;;5090099;28;20032;-73
2022/07/07 13:07:08;;;;;;;5.53;0.80;;;22.40;58.60;;;;;;5090280;28;20047;-76
2022/07/07 13:09:34;;;;;;;6.35;0.73;;;22.40;58.30;;;;;;5097268;28;20523;-76
2022/07/07 13:12:00;;;;;;;6.65;0.65;;;22.40;58.30;;;;;;5095958;28;20173;-75
2022/07/07 13:14:25;;;;;;;13.07;1.45;;;22.40;58.00;;;;;;5090320;28;20157;-76
2022/07/07 13:16:51;;;;;;;8.18;0.68;;;22.40;58.00;;;;;;5091681;28;20028;-74
2022/07/07 13:19:17;;;;;;;7.82;0.82;;;22.30;58.00;;;;;;5093525;28;20563;-74
2022/07/07 13:21:42;;;;;;;9.93;1.05;;;22.30;58.20;;;;;;5097635;28;20657;-75